createdAt,value
2019-03-17T00:01:27.635Z,3.68
2019-03-17T00:03:54.436Z,3.65
2019-03-17T00:06:21.167Z,3.67
2019-03-17T00:08:47.904Z,3.70
2019-03-17T00:11:14.784Z,3.74
2019-03-17T00:13:41.520Z,3.77
2019-03-17T00:16:08.275Z,3.72
2019-03-17T00:18:35.038Z,3.72
2019-03-17T00:21:01.755Z,3.67
2019-03-17T00:23:29.900Z,3.60
2019-03-17T00:25:56.651Z,3.58
2019-03-17T00:28:23.403Z,3.47
2019-03-17T00:30:50.275Z,3.41
2019-03-17T00:33:17.025Z,3.38
2019-03-17T00:35:43.783Z,3.34
2019-03-17T00:38:10.660Z,3.30
2019-03-17T00:40:37.429Z,3.22
2019-03-17T00:43:04.166Z,3.20
2019-03-17T00:45:30.950Z,3.22
2019-03-17T00:47:57.671Z,3.21
2019-03-17T00:50:24.696Z,3.22
2019-03-17T00:52:51.437Z,3.19
2019-03-17T00:55:18.179Z,3.14
2019-03-17T00:57:45.046Z,3.08
2019-03-17T01:00:14.287Z,3.11
2019-03-17T01:02:41.094Z,3.13
2019-03-17T01:05:07.965Z,3.09
2019-03-17T01:07:34.683Z,3.08
2019-03-17T01:10:01.596Z,3.06
2019-03-17T01:12:28.340Z,3.10
2019-03-17T01:14:55.063Z,3.16
2019-03-17T01:17:21.958Z,3.22
2019-03-17T01:19:48.689Z,3.16
2019-03-17T01:22:15.439Z,3.11
2019-03-17T01:24:42.319Z,3.07
2019-03-17T01:27:09.063Z,3.06
2019-03-17T01:29:35.793Z,3.04
2019-03-17T01:32:02.573Z,3.02
2019-03-17T01:34:29.300Z,3.06
2019-03-17T01:36:56.123Z,3.07
2019-03-17T01:39:22.861Z,3.12
2019-03-17T01:41:49.601Z,3.07
2019-03-17T01:44:16.372Z,3.09
2019-03-17T01:46:43.112Z,3.09
2019-03-17T01:49:10.166Z,3.05
2019-03-17T01:51:36.911Z,2.99
2019-03-17T01:54:03.662Z,2.80
2019-03-17T01:56:30.518Z,2.84
2019-03-17T01:58:57.289Z,2.82
2019-03-17T02:01:24.010Z,2.84
2019-03-17T02:03:50.880Z,2.80
2019-03-17T02:06:17.623Z,2.76
2019-03-17T02:08:44.349Z,2.73
2019-03-17T02:11:11.113Z,2.69
2019-03-17T02:13:37.842Z,2.67
2019-03-17T02:16:04.735Z,2.68
2019-03-17T02:18:31.479Z,2.62
2019-03-17T02:20:58.185Z,2.62
2019-03-17T02:23:25.080Z,2.61
2019-03-17T02:25:51.820Z,2.62
2019-03-17T02:28:18.546Z,2.62
2019-03-17T02:30:45.461Z,2.57
2019-03-17T02:33:12.153Z,2.54
2019-03-17T02:35:40.171Z,2.55
2019-03-17T02:38:07.179Z,2.58
2019-03-17T02:40:33.908Z,2.59
2019-03-17T02:43:00.780Z,2.57
2019-03-17T02:45:27.514Z,2.62
2019-03-17T02:47:54.262Z,2.61
2019-03-17T02:50:21.139Z,2.57
2019-03-17T02:52:47.862Z,2.48
2019-03-17T02:55:14.616Z,2.42
2019-03-17T02:57:41.478Z,2.47
2019-03-17T03:00:09.688Z,2.43
2019-03-17T03:02:36.421Z,2.42
2019-03-17T03:05:05.652Z,2.43
2019-03-17T03:07:32.375Z,2.36
2019-03-17T03:09:59.117Z,2.33
2019-03-17T03:12:25.985Z,2.31
2019-03-17T03:14:52.717Z,2.36
2019-03-17T03:17:19.459Z,2.32
2019-03-17T03:19:46.228Z,2.25
2019-03-17T03:22:12.960Z,2.25
2019-03-17T03:24:39.849Z,2.21
2019-03-17T03:27:06.573Z,2.18
2019-03-17T03:29:33.302Z,2.10
2019-03-17T03:32:00.089Z,2.04
2019-03-17T03:34:26.889Z,2.01
2019-03-17T03:36:53.830Z,2.09
2019-03-17T03:39:20.559Z,2.07
2019-03-17T03:41:47.302Z,2.04
2019-03-17T03:44:14.173Z,2.08
2019-03-17T03:46:40.913Z,2.05
2019-03-17T03:49:07.644Z,2.00
2019-03-17T03:51:34.417Z,1.96
2019-03-17T03:54:01.146Z,1.98
2019-03-17T03:56:27.965Z,1.99
2019-03-17T03:58:54.793Z,1.98
2019-03-17T04:01:21.541Z,1.96
2019-03-17T04:03:48.495Z,1.96
2019-03-17T04:06:26.186Z,2.01
2019-03-17T04:08:43.769Z,2.03
2019-03-17T04:11:10.536Z,2.02
2019-03-17T04:13:37.283Z,1.99
2019-03-17T04:16:04.149Z,1.99
2019-03-17T04:18:30.925Z,2.00
2019-03-17T04:20:57.678Z,2.02
2019-03-17T04:23:24.545Z,1.99
2019-03-17T04:25:51.679Z,2.04
2019-03-17T04:28:18.411Z,2.02
2019-03-17T04:30:45.298Z,2.00
2019-03-17T04:33:12.037Z,2.07
2019-03-17T04:35:38.773Z,2.08
2019-03-17T04:38:05.636Z,2.05
2019-03-17T04:40:32.371Z,2.04
2019-03-17T04:42:59.110Z,2.04
2019-03-17T04:45:26.112Z,2.04
2019-03-17T04:47:52.856Z,2.07
2019-03-17T04:50:19.599Z,2.06
2019-03-17T04:52:46.369Z,2.02
2019-03-17T04:55:13.113Z,2.02
2019-03-17T04:57:39.981Z,2.02
2019-03-17T05:00:10.617Z,2.04
2019-03-17T05:02:37.371Z,1.98
2019-03-17T05:05:06.216Z,1.93
2019-03-17T05:07:34.922Z,1.94
2019-03-17T05:10:03.589Z,1.93
2019-03-17T05:12:30.363Z,1.89
2019-03-17T05:14:58.707Z,1.90
2019-03-17T05:17:25.604Z,1.88
2019-03-17T05:19:52.410Z,1.85
2019-03-17T05:22:19.150Z,1.87
2019-03-17T05:24:45.934Z,1.87
2019-03-17T05:27:12.682Z,1.86
2019-03-17T05:29:39.607Z,1.89
2019-03-17T05:32:06.313Z,1.90
2019-03-17T05:34:33.061Z,1.91
2019-03-17T05:37:06.188Z,1.93
2019-03-17T05:39:28.468Z,1.86
2019-03-17T05:41:55.206Z,1.86
2019-03-17T05:44:21.988Z,1.89
2019-03-17T05:46:48.740Z,1.85
2019-03-17T05:49:15.600Z,1.86
2019-03-17T05:51:42.390Z,1.87
2019-03-17T05:54:11.607Z,1.85
2019-03-17T05:56:38.465Z,1.90
2019-03-17T05:59:07.950Z,1.91
2019-03-17T06:01:34.704Z,1.93
2019-03-17T06:04:01.471Z,1.97
2019-03-17T06:06:28.259Z,1.96
2019-03-17T06:08:55.143Z,1.92
2019-03-17T06:11:21.870Z,1.94
2019-03-17T06:13:51.136Z,1.93
2019-03-17T06:16:17.217Z,1.95
2019-03-17T06:18:43.934Z,1.91
2019-03-17T06:21:10.675Z,1.92
2019-03-17T06:23:37.498Z,1.94
2019-03-17T06:26:04.238Z,1.98
2019-03-17T06:28:30.965Z,2.05
2019-03-17T06:30:57.839Z,2.07
2019-03-17T06:33:24.589Z,2.06
2019-03-17T06:35:51.337Z,2.08
2019-03-17T06:38:18.197Z,2.11
2019-03-17T06:40:44.931Z,2.15
2019-03-17T06:43:11.660Z,2.22
2019-03-17T06:45:38.556Z,2.27
2019-03-17T06:48:05.293Z,2.33
2019-03-17T06:50:32.133Z,2.39
2019-03-17T06:52:58.973Z,2.48
2019-03-17T06:55:25.727Z,2.57
2019-03-17T06:57:52.470Z,2.81
2019-03-17T07:00:19.366Z,3.07
2019-03-17T07:02:46.080Z,3.23
2019-03-17T07:05:12.936Z,3.49
2019-03-17T07:07:44.190Z,3.69
2019-03-17T07:10:09.579Z,3.88
2019-03-17T07:12:36.407Z,4.08
2019-03-17T07:15:07.085Z,4.24
2019-03-17T07:17:33.831Z,4.41
2019-03-17T07:20:00.945Z,4.54
2019-03-17T07:22:27.678Z,4.65
2019-03-17T07:24:54.434Z,4.69
2019-03-17T07:27:21.332Z,4.84
2019-03-17T07:29:49.493Z,4.93
2019-03-17T07:32:16.432Z,4.96
2019-03-17T07:34:43.248Z,5.09
2019-03-17T07:37:09.974Z,5.18
2019-03-17T07:39:36.878Z,5.19
2019-03-17T07:42:03.614Z,5.24
2019-03-17T07:44:30.377Z,5.21
2019-03-17T07:46:57.181Z,5.30
2019-03-17T07:49:23.931Z,5.34
2019-03-17T07:51:50.684Z,5.33
2019-03-17T07:54:17.555Z,5.38
2019-03-17T07:56:44.311Z,5.37
2019-03-17T07:59:11.023Z,5.51
2019-03-17T08:01:38.038Z,5.54
2019-03-17T08:04:04.832Z,5.62
2019-03-17T08:06:31.623Z,5.71
2019-03-17T08:08:58.528Z,5.71
2019-03-17T08:11:25.279Z,5.76
2019-03-17T08:13:52.022Z,5.87
2019-03-17T08:16:18.792Z,5.87
2019-03-17T08:18:45.513Z,5.85
2019-03-17T08:21:12.412Z,5.98
2019-03-17T08:23:39.195Z,5.98
2019-03-17T08:26:05.918Z,6.03
2019-03-17T08:28:32.714Z,6.03
2019-03-17T08:30:59.485Z,5.88
2019-03-17T08:33:26.222Z,5.95
2019-03-17T08:35:53.106Z,5.85
2019-03-17T08:38:22.109Z,6.00
2019-03-17T08:40:48.708Z,6.07
2019-03-17T08:43:15.605Z,6.17
2019-03-17T08:45:42.354Z,6.06
2019-03-17T08:48:09.089Z,6.09
2019-03-17T08:50:36.701Z,6.24
2019-03-17T08:53:03.479Z,6.29
2019-03-17T08:55:30.238Z,6.33
2019-03-17T08:57:57.018Z,6.44
2019-03-17T09:00:23.769Z,6.38
2019-03-17T09:02:50.606Z,6.47
2019-03-17T09:05:17.363Z,6.55
2019-03-17T09:07:45.275Z,6.59
2019-03-17T09:10:13.357Z,6.66
2019-03-17T09:12:40.097Z,6.75
2019-03-17T09:15:07.173Z,6.83
2019-03-17T09:17:34.046Z,6.86
2019-03-17T09:20:00.821Z,6.86
2019-03-17T09:22:27.703Z,7.01
2019-03-17T09:24:54.508Z,7.03
2019-03-17T09:27:21.272Z,7.08
2019-03-17T09:29:48.180Z,7.17
2019-03-17T09:32:14.906Z,7.13
2019-03-17T09:34:41.667Z,7.25
2019-03-17T09:37:08.743Z,7.24
2019-03-17T09:39:35.508Z,7.30
2019-03-17T09:42:02.260Z,7.45
2019-03-17T09:44:29.095Z,7.49
2019-03-17T09:46:55.834Z,7.58
2019-03-17T09:49:22.588Z,7.73
2019-03-17T09:51:49.371Z,7.77
2019-03-17T09:54:17.036Z,7.80
2019-03-17T09:56:43.924Z,7.90
2019-03-17T09:59:12.832Z,7.85
2019-03-17T10:01:39.568Z,8.01
2019-03-17T10:04:06.452Z,8.12
2019-03-17T10:06:33.283Z,8.12
2019-03-17T10:09:00.607Z,8.24
2019-03-17T10:11:27.493Z,8.43
2019-03-17T10:13:54.256Z,8.56
2019-03-17T10:16:21.243Z,8.63
2019-03-17T10:18:47.992Z,8.68
2019-03-17T10:21:14.792Z,8.73
2019-03-17T10:23:41.584Z,8.70
2019-03-17T10:26:08.334Z,8.83
2019-03-17T10:28:35.347Z,8.86
2019-03-17T10:31:02.348Z,8.91
2019-03-17T10:33:29.090Z,8.97
2019-03-17T10:35:55.867Z,9.05
2019-03-17T10:38:22.673Z,9.03
2019-03-17T10:40:49.408Z,9.15
2019-03-17T10:43:16.304Z,9.17
2019-03-17T10:45:43.066Z,9.26
2019-03-17T10:48:09.812Z,9.19
2019-03-17T10:50:48.735Z,9.34
2019-03-17T10:53:05.178Z,9.52
2019-03-17T10:55:31.898Z,9.77
2019-03-17T10:57:58.831Z,10.21
2019-03-17T11:00:25.570Z,10.61
2019-03-17T11:02:52.328Z,11.42
2019-03-17T11:05:19.148Z,12.26
2019-03-17T11:07:46.291Z,13.07
2019-03-17T11:10:14.098Z,13.82
2019-03-17T11:12:40.858Z,14.41
2019-03-17T11:15:18.713Z,14.83
2019-03-17T11:17:48.379Z,15.23
2019-03-17T11:20:15.217Z,15.66
2019-03-17T11:22:42.107Z,16.01
2019-03-17T11:25:11.705Z,16.43
2019-03-17T11:27:38.474Z,16.58
2019-03-17T11:30:10.360Z,16.79
2019-03-17T11:32:37.138Z,16.89
2019-03-17T11:35:04.894Z,16.65
2019-03-17T11:37:31.708Z,16.72
2019-03-17T11:39:58.514Z,16.97
2019-03-17T11:42:25.335Z,17.18
2019-03-17T11:44:52.053Z,17.26
2019-03-17T11:47:18.832Z,17.31
2019-03-17T11:49:46.254Z,17.58
2019-03-17T11:52:13.153Z,17.58
2019-03-17T11:54:40.029Z,17.48
2019-03-17T11:57:15.847Z,17.39
2019-03-17T11:59:42.604Z,17.58
2019-03-17T12:02:09.364Z,17.63
2019-03-17T12:04:36.246Z,17.81
2019-03-17T12:07:02.989Z,17.82
2019-03-17T12:09:29.795Z,17.94
2019-03-17T12:11:56.662Z,17.91
2019-03-17T12:14:23.401Z,17.93
2019-03-17T12:16:50.125Z,17.94
2019-03-17T12:19:17.022Z,17.99
2019-03-17T12:21:43.745Z,18.02
2019-03-17T12:24:10.487Z,18.07
2019-03-17T12:26:37.371Z,18.00
2019-03-17T12:29:04.150Z,17.74
2019-03-17T12:31:30.861Z,17.70
2019-03-17T12:33:57.745Z,17.57
2019-03-17T12:36:24.499Z,17.64
2019-03-17T12:38:51.554Z,17.44
2019-03-17T12:41:18.348Z,17.36
2019-03-17T12:43:45.115Z,17.22
2019-03-17T12:46:11.991Z,17.29
2019-03-17T12:48:38.732Z,17.23
2019-03-17T12:51:05.458Z,17.27
2019-03-17T12:53:32.368Z,17.19
2019-03-17T12:55:59.094Z,16.98
2019-03-17T12:58:25.849Z,17.02
2019-03-17T13:00:52.619Z,16.86
2019-03-17T13:03:19.359Z,16.96
2019-03-17T13:05:46.230Z,17.09
2019-03-17T13:08:12.969Z,16.97
2019-03-17T13:10:39.764Z,17.02
2019-03-17T13:13:06.663Z,17.17
2019-03-17T13:15:33.415Z,17.18
2019-03-17T13:18:00.152Z,17.19
2019-03-17T13:20:29.583Z,17.15
2019-03-17T13:22:55.590Z,17.17
2019-03-17T13:25:22.335Z,17.10
2019-03-17T13:27:49.231Z,17.16
2019-03-17T13:30:17.187Z,17.18
2019-03-17T13:32:43.904Z,16.91
2019-03-17T13:35:10.794Z,17.07
2019-03-17T13:37:37.523Z,17.10
2019-03-17T13:40:28.426Z,17.26
2019-03-17T13:42:46.092Z,17.33
2019-03-17T13:45:13.045Z,17.45
2019-03-17T13:47:40.045Z,17.61
2019-03-17T13:50:20.065Z,17.67
2019-03-17T13:52:46.950Z,17.61
2019-03-17T13:55:13.679Z,17.36
2019-03-17T13:57:44.938Z,17.48
2019-03-17T14:00:14.101Z,17.44
2019-03-17T14:02:40.839Z,17.55
2019-03-17T14:05:07.683Z,17.61
2019-03-17T14:07:34.584Z,17.60
2019-03-17T14:10:13.259Z,17.76
2019-03-17T14:12:30.175Z,17.79
2019-03-17T14:14:56.914Z,17.82
2019-03-17T14:17:23.667Z,17.79
2019-03-17T14:19:50.562Z,17.71
2019-03-17T14:22:17.318Z,17.62
2019-03-17T14:24:44.580Z,17.68
2019-03-17T14:27:11.471Z,17.75
2019-03-17T14:29:38.213Z,17.81
2019-03-17T14:32:04.973Z,17.80
2019-03-17T14:34:31.797Z,17.76
2019-03-17T14:36:58.555Z,17.49
2019-03-17T14:39:25.447Z,17.62
2019-03-17T14:41:52.165Z,17.57
2019-03-17T14:44:18.906Z,17.61
2019-03-17T14:46:45.864Z,17.53
2019-03-17T14:49:12.634Z,17.41
2019-03-17T14:51:39.352Z,17.40
2019-03-17T14:54:06.159Z,17.35
2019-03-17T14:56:32.916Z,17.41
2019-03-17T14:58:59.656Z,17.18
2019-03-17T15:01:26.467Z,16.75
2019-03-17T15:03:53.203Z,16.38
2019-03-17T15:06:20.117Z,15.79
2019-03-17T15:08:48.713Z,15.33
2019-03-17T15:11:15.481Z,14.95
2019-03-17T15:13:42.374Z,14.64
2019-03-17T15:16:09.130Z,14.29
2019-03-17T15:18:35.893Z,13.81
2019-03-17T15:21:03.071Z,13.52
2019-03-17T15:23:29.755Z,13.18
2019-03-17T15:25:56.486Z,12.92
2019-03-17T15:28:23.470Z,12.82
2019-03-17T15:31:05.715Z,12.82
2019-03-17T15:33:18.930Z,12.68
2019-03-17T15:35:45.679Z,12.37
2019-03-17T15:38:12.400Z,12.25
2019-03-17T15:40:39.288Z,12.22
2019-03-17T15:43:06.043Z,12.19
2019-03-17T15:45:32.757Z,12.14
2019-03-17T15:47:59.648Z,11.92
2019-03-17T15:50:27.980Z,11.98
2019-03-17T15:52:54.749Z,12.04
2019-03-17T15:55:21.648Z,11.94
2019-03-17T15:57:48.680Z,11.84
2019-03-17T16:00:25.278Z,11.86
2019-03-17T16:02:51.128Z,11.74
2019-03-17T16:05:18.562Z,11.56
2019-03-17T16:07:45.959Z,11.64
2019-03-17T16:10:32.001Z,11.56
2019-03-17T16:12:58.764Z,11.46
2019-03-17T16:15:25.641Z,11.43
2019-03-17T16:17:52.407Z,11.35
2019-03-17T16:20:24.939Z,11.41
2019-03-17T16:22:51.943Z,11.36
2019-03-17T16:25:33.169Z,11.32
2019-03-17T16:28:00.047Z,11.17
2019-03-17T16:30:31.024Z,11.07
2019-03-17T16:32:57.819Z,11.02
2019-03-17T16:35:24.594Z,10.91
2019-03-17T16:37:51.345Z,10.90
2019-03-17T16:40:29.055Z,10.94
2019-03-17T16:42:55.786Z,10.91
2019-03-17T16:45:22.522Z,10.86
2019-03-17T16:47:49.600Z,10.83
2019-03-17T16:50:18.561Z,10.77
2019-03-17T16:52:45.304Z,10.77
2019-03-17T16:55:12.309Z,10.75
2019-03-17T16:57:39.046Z,10.69
2019-03-17T17:00:21.206Z,10.70
2019-03-17T17:02:48.456Z,10.59
2019-03-17T17:05:16.890Z,10.52
2019-03-17T17:07:43.892Z,10.45
2019-03-17T17:10:14.507Z,10.44
2019-03-17T17:12:41.257Z,10.42
2019-03-17T17:15:13.084Z,10.42
2019-03-17T17:17:39.826Z,10.40
2019-03-17T17:20:19.773Z,10.35
2019-03-17T17:22:46.541Z,10.23
2019-03-17T17:25:13.241Z,10.24
2019-03-17T17:27:40.131Z,10.26
2019-03-17T17:30:11.779Z,10.23
2019-03-17T17:32:38.532Z,10.12
2019-03-17T17:35:06.098Z,10.16
2019-03-17T17:37:33.076Z,10.10
2019-03-17T17:40:00.055Z,10.09
2019-03-17T17:42:26.991Z,10.03
2019-03-17T17:44:53.738Z,10.02
2019-03-17T17:47:20.469Z,10.01
2019-03-17T17:49:47.336Z,9.99
2019-03-17T17:52:14.069Z,9.97
2019-03-17T17:54:40.802Z,9.97
2019-03-17T17:57:07.668Z,9.95
2019-03-17T17:59:34.399Z,9.85
2019-03-17T18:02:01.307Z,9.84
2019-03-17T18:04:28.216Z,9.81
2019-03-17T18:06:54.954Z,9.78
2019-03-17T18:09:21.695Z,9.75
2019-03-17T18:11:48.578Z,9.75
2019-03-17T18:14:15.333Z,9.63
2019-03-17T18:16:42.073Z,9.61
2019-03-17T18:19:08.967Z,9.61
2019-03-17T18:21:35.725Z,9.57
2019-03-17T18:24:02.434Z,9.57
2019-03-17T18:26:29.385Z,9.55
2019-03-17T18:28:56.109Z,9.45
2019-03-17T18:31:23.119Z,9.46
2019-03-17T18:33:49.985Z,9.42
2019-03-17T18:36:16.742Z,9.42
2019-03-17T18:38:43.504Z,9.39
2019-03-17T18:41:10.383Z,9.36
2019-03-17T18:43:37.114Z,9.33
2019-03-17T18:46:04.144Z,9.28
2019-03-17T18:48:30.924Z,9.26
2019-03-17T18:50:57.781Z,9.23
2019-03-17T18:53:24.662Z,9.18
2019-03-17T18:55:51.395Z,9.17
2019-03-17T18:58:18.123Z,9.13
2019-03-17T19:00:44.896Z,9.13
2019-03-17T19:03:11.639Z,9.14
2019-03-17T19:05:38.495Z,9.12
2019-03-17T19:08:05.232Z,9.12
2019-03-17T19:10:31.984Z,9.11
2019-03-17T19:12:58.760Z,9.08
2019-03-17T19:15:25.542Z,9.07
2019-03-17T19:17:52.426Z,9.06
2019-03-17T19:20:20.435Z,9.07
2019-03-17T19:22:47.188Z,9.08
2019-03-17T19:25:19.818Z,9.06
2019-03-17T19:27:46.557Z,9.06
2019-03-17T19:30:18.911Z,9.06
2019-03-17T19:32:46.052Z,9.05
2019-03-17T19:35:13.184Z,9.02
2019-03-17T19:37:40.039Z,9.04
2019-03-17T19:40:16.971Z,9.03
2019-03-17T19:42:43.978Z,9.04
2019-03-17T19:45:11.015Z,9.03
2019-03-17T19:47:37.752Z,9.02
2019-03-17T19:50:17.037Z,9.01
2019-03-17T19:52:44.332Z,9.00
2019-03-17T19:55:11.373Z,8.97
2019-03-17T19:57:44.800Z,8.93
2019-03-17T20:00:16.495Z,8.96
2019-03-17T20:02:46.818Z,8.92
2019-03-17T20:05:12.085Z,8.89
2019-03-17T20:07:38.811Z,8.89
2019-03-17T20:10:21.690Z,8.88
2019-03-17T20:12:48.470Z,8.87
2019-03-17T20:15:15.217Z,8.80
2019-03-17T20:17:42.095Z,8.78
2019-03-17T20:20:13.544Z,8.79
2019-03-17T20:22:40.384Z,8.81
2019-03-17T20:25:07.254Z,8.79
2019-03-17T20:27:34.005Z,8.78
2019-03-17T20:30:00.730Z,8.77
2019-03-17T20:32:27.501Z,8.78
2019-03-17T20:34:54.255Z,8.80
2019-03-17T20:37:21.125Z,8.73
2019-03-17T20:39:47.842Z,8.74
2019-03-17T20:42:14.573Z,8.76
2019-03-17T20:44:41.453Z,8.74
2019-03-17T20:47:08.203Z,8.78
2019-03-17T20:49:34.945Z,8.76
2019-03-17T20:52:02.278Z,8.66
2019-03-17T20:54:28.998Z,8.68
2019-03-17T20:56:55.741Z,8.71
2019-03-17T20:59:22.630Z,8.68
2019-03-17T21:01:49.358Z,8.67
2019-03-17T21:04:16.107Z,8.55
2019-03-17T21:06:42.925Z,8.56
2019-03-17T21:09:09.665Z,8.55
2019-03-17T21:11:36.383Z,8.51
2019-03-17T21:14:03.372Z,8.49
2019-03-17T21:16:30.149Z,8.48
2019-03-17T21:18:56.905Z,8.47
2019-03-17T21:21:23.908Z,8.45
2019-03-17T21:23:50.647Z,8.44
2019-03-17T21:26:17.381Z,8.41
2019-03-17T21:28:44.272Z,8.38
2019-03-17T21:31:10.994Z,8.43
2019-03-17T21:33:40.194Z,8.46
2019-03-17T21:36:06.446Z,8.46
2019-03-17T21:38:33.190Z,8.48
2019-03-17T21:41:07.086Z,8.48
2019-03-17T21:43:28.536Z,8.47
2019-03-17T21:45:55.268Z,8.46
2019-03-17T21:48:22.002Z,8.46
2019-03-17T21:50:48.894Z,8.42
2019-03-17T21:53:15.626Z,8.35
2019-03-17T21:55:42.362Z,8.41
2019-03-17T21:58:09.177Z,8.38
2019-03-17T22:00:36.089Z,8.35
2019-03-17T22:03:03.179Z,8.34
2019-03-17T22:05:30.052Z,8.36
2019-03-17T22:07:56.763Z,8.31
2019-03-17T22:10:23.490Z,8.33
2019-03-17T22:12:50.379Z,8.35
2019-03-17T22:15:17.536Z,8.35
2019-03-17T22:17:44.320Z,8.30
2019-03-17T22:20:14.398Z,8.26
2019-03-17T22:22:41.130Z,8.23
2019-03-17T22:25:15.347Z,8.29
2019-03-17T22:27:42.064Z,8.32
2019-03-17T22:30:18.873Z,8.32
2019-03-17T22:32:45.617Z,8.34
2019-03-17T22:35:12.348Z,8.35
2019-03-17T22:37:39.217Z,8.37
2019-03-17T22:40:13.564Z,8.31
2019-03-17T22:42:40.298Z,8.30
2019-03-17T22:45:12.702Z,8.23
2019-03-17T22:47:39.419Z,8.22
2019-03-17T22:50:10.178Z,8.20
2019-03-17T22:52:37.052Z,8.25
2019-03-17T22:55:06.103Z,8.26
2019-03-17T22:57:32.845Z,8.28
2019-03-17T22:59:59.694Z,8.18
2019-03-17T23:02:26.423Z,8.23
2019-03-17T23:04:53.174Z,8.24
2019-03-17T23:07:20.249Z,8.25
2019-03-17T23:09:47.074Z,8.21
2019-03-17T23:12:13.969Z,8.13
2019-03-17T23:14:40.695Z,8.11
2019-03-17T23:17:07.449Z,8.10
2019-03-17T23:19:34.377Z,8.09
2019-03-17T23:22:01.107Z,8.12
2019-03-17T23:24:28.134Z,8.08
2019-03-17T23:26:55.134Z,8.11
2019-03-17T23:29:21.861Z,8.10
2019-03-17T23:31:48.586Z,8.10
2019-03-17T23:34:15.338Z,8.07
2019-03-17T23:36:42.069Z,8.04
2019-03-17T23:39:08.930Z,7.97
2019-03-17T23:41:35.700Z,7.93
2019-03-17T23:44:02.460Z,7.85
2019-03-17T23:46:29.329Z,7.84
2019-03-17T23:48:56.114Z,7.68
2019-03-17T23:51:22.781Z,7.69
2019-03-17T23:53:49.685Z,7.69
2019-03-17T23:56:16.415Z,7.68
2019-03-17T23:58:43.144Z,7.68
